createdAt,value
2018-04-08T00:00:44.717Z,13.1
2018-04-08T00:01:47.434Z,13
2018-04-08T00:02:49.862Z,13
2018-04-08T00:03:52.301Z,13
2018-04-08T00:04:54.738Z,13
2018-04-08T00:05:57.470Z,12.9
2018-04-08T00:06:59.910Z,12.9
2018-04-08T00:08:02.346Z,12.9
2018-04-08T00:09:04.788Z,12.9
2018-04-08T00:10:07.504Z,12.8
2018-04-08T00:11:10.325Z,12.9
2018-04-08T00:12:12.780Z,12.8
2018-04-08T00:13:15.211Z,12.8
2018-04-08T00:14:17.640Z,12.8
2018-04-08T00:15:20.070Z,12.8
2018-04-08T00:16:22.504Z,12.8
2018-04-08T00:17:24.945Z,12.8
2018-04-08T00:18:27.392Z,12.8
2018-04-08T00:19:30.118Z,12.8
2018-04-08T00:20:32.558Z,12.7
2018-04-08T00:21:35.007Z,12.7
2018-04-08T00:22:37.722Z,12.7
2018-04-08T00:23:40.156Z,12.7
2018-04-08T00:24:42.580Z,12.7
2018-04-08T00:25:45.022Z,12.6
2018-04-08T00:26:47.469Z,12.6
2018-04-08T00:27:49.912Z,12.6
2018-04-08T00:28:52.343Z,12.6
2018-04-08T00:29:54.782Z,12.6
2018-04-08T00:30:57.210Z,12.6
2018-04-08T00:31:59.654Z,12.6
2018-04-08T00:33:02.479Z,12.5
2018-04-08T00:34:05.186Z,12.5
2018-04-08T00:35:07.625Z,12.5
2018-04-08T00:36:10.465Z,12.5
2018-04-08T00:37:12.906Z,12.5
2018-04-08T00:38:15.741Z,12.4
2018-04-08T00:39:18.166Z,12.4
2018-04-08T00:40:20.601Z,12.4
2018-04-08T00:41:23.044Z,12.4
2018-04-08T00:42:25.471Z,12.4
2018-04-08T00:43:27.919Z,12.4
2018-04-08T00:44:30.344Z,12.3
2018-04-08T00:45:32.783Z,12.3
2018-04-08T00:46:35.224Z,12.3
2018-04-08T00:47:37.660Z,12.3
2018-04-08T00:48:40.680Z,12.3
2018-04-08T00:49:43.114Z,12.3
2018-04-08T00:50:45.828Z,12.2
2018-04-08T00:51:48.269Z,12.2
2018-04-08T00:52:50.704Z,12.2
2018-04-08T00:53:53.431Z,12.2
2018-04-08T00:54:55.873Z,12.2
2018-04-08T00:55:58.306Z,12.1
2018-04-08T00:57:00.744Z,12.2
2018-04-08T00:58:04.244Z,12.1
2018-04-08T00:59:06.667Z,12.1
2018-04-08T01:00:09.817Z,12.1
2018-04-08T01:01:12.247Z,12.1
2018-04-08T01:02:14.972Z,12.1
2018-04-08T01:03:17.409Z,12.1
2018-04-08T01:04:19.846Z,12.1
2018-04-08T01:05:22.284Z,12.1
2018-04-08T01:06:24.723Z,12.1
2018-04-08T01:07:27.749Z,12.1
2018-04-08T01:08:30.178Z,12.1
2018-04-08T01:09:32.624Z,12.1
2018-04-08T01:10:35.347Z,12.1
2018-04-08T01:11:37.773Z,12.1
2018-04-08T01:12:40.218Z,12.1
2018-04-08T01:13:42.654Z,12.2
2018-04-08T01:14:45.084Z,12.1
2018-04-08T01:15:47.525Z,12.1
2018-04-08T01:16:49.957Z,12
2018-04-08T01:17:52.390Z,12
2018-04-08T01:18:55.124Z,12.1
2018-04-08T01:19:57.545Z,12.1
2018-04-08T01:20:59.976Z,12
2018-04-08T01:22:02.845Z,12
2018-04-08T01:23:05.279Z,12
2018-04-08T01:24:08.027Z,12
2018-04-08T01:25:10.740Z,12
2018-04-08T01:26:13.169Z,11.9
2018-04-08T01:27:15.604Z,11.9
2018-04-08T01:28:18.032Z,11.9
2018-04-08T01:29:20.468Z,11.9
2018-04-08T01:30:22.904Z,11.9
2018-04-08T01:31:25.717Z,11.9
2018-04-08T01:32:28.158Z,11.9
2018-04-08T01:33:30.590Z,11.9
2018-04-08T01:34:33.025Z,11.8
2018-04-08T01:35:36.035Z,11.8
2018-04-08T01:36:38.463Z,11.8
2018-04-08T01:37:41.490Z,11.8
2018-04-08T01:38:43.925Z,11.8
2018-04-08T01:39:46.362Z,11.8
2018-04-08T01:40:48.797Z,11.8
2018-04-08T01:41:51.628Z,11.7
2018-04-08T01:42:54.056Z,11.7
2018-04-08T01:43:56.500Z,11.7
2018-04-08T01:44:58.928Z,11.7
2018-04-08T01:46:01.362Z,11.7
2018-04-08T01:47:03.793Z,11.7
2018-04-08T01:48:06.231Z,11.7
2018-04-08T01:49:08.663Z,11.7
2018-04-08T01:50:11.112Z,11.7
2018-04-08T01:51:13.537Z,11.6
2018-04-08T01:52:15.976Z,11.6
2018-04-08T01:53:18.414Z,11.6
2018-04-08T01:54:21.140Z,11.6
2018-04-08T01:55:23.569Z,11.6
2018-04-08T01:56:26.008Z,11.5
2018-04-08T01:57:28.427Z,11.5
2018-04-08T01:58:30.877Z,11.5
2018-04-08T01:59:33.303Z,11.6
2018-04-08T02:00:35.741Z,11.5
2018-04-08T02:01:38.463Z,11.5
2018-04-08T02:02:40.893Z,11.4
2018-04-08T02:03:43.326Z,11.4
2018-04-08T02:04:45.769Z,11.4
2018-04-08T02:05:48.193Z,11.3
2018-04-08T02:06:50.908Z,11.4
2018-04-08T02:07:53.639Z,11.4
2018-04-08T02:08:56.070Z,11.4
2018-04-08T02:09:58.512Z,11.4
2018-04-08T02:11:01.233Z,11.4
2018-04-08T02:12:03.978Z,11.4
2018-04-08T02:13:06.411Z,11.4
2018-04-08T02:14:08.846Z,11.3
2018-04-08T02:15:11.277Z,11.3
2018-04-08T02:16:13.707Z,11.3
2018-04-08T02:17:16.134Z,11.3
2018-04-08T02:18:18.576Z,11.2
2018-04-08T02:19:21.011Z,11.3
2018-04-08T02:20:23.446Z,11.2
2018-04-08T02:21:26.461Z,11.2
2018-04-08T02:22:29.192Z,11.2
2018-04-08T02:23:31.955Z,11.3
2018-04-08T02:24:34.392Z,11.2
2018-04-08T02:25:36.822Z,11.1
2018-04-08T02:26:39.257Z,11.1
2018-04-08T02:27:41.687Z,11.1
2018-04-08T02:28:44.123Z,11.1
2018-04-08T02:29:46.551Z,11.1
2018-04-08T02:30:48.986Z,11
2018-04-08T02:31:51.407Z,11
2018-04-08T02:32:54.154Z,11.1
2018-04-08T02:33:56.878Z,11
2018-04-08T02:34:59.307Z,11.1
2018-04-08T02:36:02.044Z,10.9
2018-04-08T02:37:05.059Z,11
2018-04-08T02:38:07.493Z,11
2018-04-08T02:39:09.918Z,11
2018-04-08T02:40:12.364Z,11
2018-04-08T02:41:14.782Z,11
2018-04-08T02:42:18.086Z,11
2018-04-08T02:43:20.908Z,10.9
2018-04-08T02:44:23.341Z,10.9
2018-04-08T02:45:25.766Z,10.9
2018-04-08T02:46:28.206Z,10.9
2018-04-08T02:47:30.926Z,10.9
2018-04-08T02:48:33.966Z,10.9
2018-04-08T02:49:36.416Z,10.9
2018-04-08T02:50:38.838Z,10.9
2018-04-08T02:51:41.266Z,10.9
2018-04-08T02:52:44.090Z,10.9
2018-04-08T02:53:46.825Z,10.8
2018-04-08T02:54:49.657Z,10.8
2018-04-08T02:55:52.088Z,10.8
2018-04-08T02:56:54.505Z,10.8
2018-04-08T02:57:56.941Z,10.8
2018-04-08T02:58:59.371Z,10.8
2018-04-08T03:00:01.800Z,10.8
2018-04-08T03:01:04.240Z,10.8
2018-04-08T03:02:06.668Z,10.7
2018-04-08T03:03:09.095Z,10.7
2018-04-08T03:04:11.540Z,10.7
2018-04-08T03:05:13.968Z,10.7
2018-04-08T03:06:16.715Z,10.7
2018-04-08T03:07:19.154Z,10.6
2018-04-08T03:08:21.879Z,10.6
2018-04-08T03:09:24.319Z,10.6
2018-04-08T03:10:27.041Z,10.6
2018-04-08T03:11:30.091Z,10.6
2018-04-08T03:12:32.510Z,10.6
2018-04-08T03:13:34.950Z,10.6
2018-04-08T03:14:37.381Z,10.6
2018-04-08T03:15:39.814Z,10.6
2018-04-08T03:16:42.247Z,10.6
2018-04-08T03:17:44.680Z,10.6
2018-04-08T03:18:47.120Z,10.6
2018-04-08T03:19:49.555Z,10.5
2018-04-08T03:20:51.988Z,10.5
2018-04-08T03:21:54.811Z,10.5
2018-04-08T03:22:57.264Z,10.6
2018-04-08T03:23:59.692Z,10.6
2018-04-08T03:25:02.128Z,10.6
2018-04-08T03:26:04.844Z,10.5
2018-04-08T03:27:07.284Z,10.6
2018-04-08T03:28:09.714Z,10.6
2018-04-08T03:29:12.148Z,10.6
2018-04-08T03:30:14.884Z,10.6
2018-04-08T03:31:17.321Z,10.6
2018-04-08T03:32:19.762Z,10.5
2018-04-08T03:33:22.308Z,10.5
2018-04-08T03:34:24.732Z,10.6
2018-04-08T03:35:27.164Z,10.6
2018-04-08T03:36:29.596Z,10.6
2018-04-08T03:37:32.031Z,10.5
2018-04-08T03:38:34.503Z,10.5
2018-04-08T03:39:36.894Z,10.5
2018-04-08T03:40:39.323Z,10.5
2018-04-08T03:41:41.753Z,10.5
2018-04-08T03:42:44.195Z,10.4
2018-04-08T03:43:46.628Z,10.4
2018-04-08T03:44:49.057Z,10.4
2018-04-08T03:45:51.499Z,10.4
2018-04-08T03:46:54.205Z,10.4
2018-04-08T03:47:56.643Z,10.4
2018-04-08T03:48:59.073Z,10.4
2018-04-08T03:50:01.505Z,10.4
2018-04-08T03:51:03.943Z,10.4
2018-04-08T03:52:06.381Z,10.4
2018-04-08T03:53:08.812Z,10.4
2018-04-08T03:54:11.245Z,10.4
2018-04-08T03:55:13.677Z,10.3
2018-04-08T03:56:16.477Z,10.3
2018-04-08T03:57:18.928Z,10.3
2018-04-08T03:58:21.352Z,10.3
2018-04-08T03:59:23.792Z,10.3
2018-04-08T04:00:26.226Z,10.3
2018-04-08T04:01:28.944Z,10.2
2018-04-08T04:02:31.664Z,10.2
2018-04-08T04:03:34.101Z,10.3
2018-04-08T04:04:36.531Z,10.3
2018-04-08T04:05:38.958Z,10.2
2018-04-08T04:06:41.385Z,10.3
2018-04-08T04:07:43.822Z,10.3
2018-04-08T04:08:46.247Z,10.3
2018-04-08T04:09:48.676Z,10.3
2018-04-08T04:10:51.713Z,10.3
2018-04-08T04:11:54.136Z,10.2
2018-04-08T04:12:56.584Z,10.2
2018-04-08T04:13:59.014Z,10.2
2018-04-08T04:15:01.453Z,10.2
2018-04-08T04:16:03.873Z,10.2
2018-04-08T04:17:06.312Z,10.2
2018-04-08T04:18:08.732Z,10.1
2018-04-08T04:19:11.458Z,10.1
2018-04-08T04:20:14.167Z,10.1
2018-04-08T04:21:16.601Z,10.1
2018-04-08T04:22:19.047Z,10.1
2018-04-08T04:23:21.469Z,10.1
2018-04-08T04:24:23.904Z,10.1
2018-04-08T04:25:26.892Z,10.1
2018-04-08T04:26:29.340Z,10.1
2018-04-08T04:27:31.785Z,10
2018-04-08T04:28:34.221Z,10.1
2018-04-08T04:29:36.644Z,10.1
2018-04-08T04:30:39.079Z,10
2018-04-08T04:31:41.519Z,10.1
2018-04-08T04:32:43.945Z,10
2018-04-08T04:33:46.368Z,10.1
2018-04-08T04:34:48.804Z,10
2018-04-08T04:35:51.235Z,10
2018-04-08T04:36:53.661Z,9.9
2018-04-08T04:37:56.091Z,9.9
2018-04-08T04:38:58.525Z,10
2018-04-08T04:40:00.961Z,10
2018-04-08T04:41:03.443Z,10
2018-04-08T04:42:05.874Z,10
2018-04-08T04:43:08.307Z,10
2018-04-08T04:44:10.756Z,9.9
2018-04-08T04:45:13.182Z,9.9
2018-04-08T04:46:15.611Z,9.9
2018-04-08T04:47:18.431Z,9.9
2018-04-08T04:48:21.157Z,9.9
2018-04-08T04:49:23.588Z,9.9
2018-04-08T04:50:26.403Z,9.9
2018-04-08T04:51:29.431Z,9.8
2018-04-08T04:52:31.861Z,9.8
2018-04-08T04:53:34.304Z,9.8
2018-04-08T04:54:36.739Z,9.8
2018-04-08T04:55:39.456Z,9.9
2018-04-08T04:56:41.891Z,9.9
2018-04-08T04:57:44.324Z,9.9
2018-04-08T04:58:46.755Z,9.8
2018-04-08T04:59:49.189Z,9.9
2018-04-08T05:00:51.613Z,9.8
2018-04-08T05:01:54.044Z,9.8
2018-04-08T05:02:56.470Z,9.8
2018-04-08T05:03:58.903Z,9.8
2018-04-08T05:05:01.336Z,9.8
2018-04-08T05:06:04.058Z,9.8
2018-04-08T05:07:06.773Z,9.8
2018-04-08T05:08:09.506Z,9.8
2018-04-08T05:09:11.939Z,9.8
2018-04-08T05:10:14.356Z,9.8
2018-04-08T05:11:16.801Z,9.8
2018-04-08T05:12:19.233Z,9.8
2018-04-08T05:13:21.948Z,9.8
2018-04-08T05:14:24.381Z,9.8
2018-04-08T05:15:26.807Z,9.8
2018-04-08T05:16:29.236Z,9.8
2018-04-08T05:17:31.674Z,9.8
2018-04-08T05:18:34.095Z,9.8
2018-04-08T05:19:36.526Z,9.8
2018-04-08T05:20:38.951Z,9.9
2018-04-08T05:21:41.668Z,9.8
2018-04-08T05:22:44.415Z,9.8
2018-04-08T05:23:47.164Z,9.8
2018-04-08T05:24:49.596Z,9.8
2018-04-08T05:25:52.035Z,9.8
2018-04-08T05:26:54.756Z,9.8
2018-04-08T05:27:57.482Z,9.9
2018-04-08T05:28:59.912Z,9.9
2018-04-08T05:30:02.353Z,9.9
2018-04-08T05:31:05.106Z,9.9
2018-04-08T05:32:07.531Z,9.9
2018-04-08T05:33:10.013Z,9.9
2018-04-08T05:34:12.748Z,9.9
2018-04-08T05:35:15.178Z,9.9
2018-04-08T05:36:17.626Z,10
2018-04-08T05:37:20.058Z,10
2018-04-08T05:38:22.489Z,10
2018-04-08T05:39:24.916Z,10
2018-04-08T05:40:27.347Z,10
2018-04-08T05:41:29.779Z,10
2018-04-08T05:42:32.209Z,10
2018-04-08T05:43:35.011Z,10.1
2018-04-08T05:44:37.443Z,10.1
2018-04-08T05:45:39.887Z,10.1
2018-04-08T05:46:42.606Z,10.1
2018-04-08T05:47:45.030Z,10.1
2018-04-08T05:48:47.460Z,10.1
2018-04-08T05:49:49.892Z,10.2
2018-04-08T05:50:52.332Z,10.2
2018-04-08T05:51:54.768Z,10.3
2018-04-08T05:52:57.192Z,10.3
2018-04-08T05:53:59.623Z,10.3
2018-04-08T05:55:02.065Z,10.3
2018-04-08T05:56:04.888Z,10.4
2018-04-08T05:57:07.318Z,10.4
2018-04-08T05:58:10.047Z,10.4
2018-04-08T05:59:12.477Z,10.4
2018-04-08T06:00:14.917Z,10.4
2018-04-08T06:01:17.351Z,10.5
2018-04-08T06:02:19.770Z,10.5
2018-04-08T06:03:22.208Z,10.5
2018-04-08T06:04:24.639Z,10.6
2018-04-08T06:05:27.080Z,10.6
2018-04-08T06:06:29.515Z,10.6
2018-04-08T06:07:31.966Z,10.7
2018-04-08T06:08:34.391Z,10.7
2018-04-08T06:09:36.818Z,10.7
2018-04-08T06:10:39.253Z,10.7
2018-04-08T06:11:41.682Z,10.8
2018-04-08T06:12:44.116Z,10.8
2018-04-08T06:13:46.550Z,10.8
2018-04-08T06:14:48.979Z,10.9
2018-04-08T06:15:51.423Z,10.9
2018-04-08T06:16:54.145Z,10.9
2018-04-08T06:17:56.580Z,10.9
2018-04-08T06:18:59.026Z,10.9
2018-04-08T06:20:01.746Z,11
2018-04-08T06:21:04.465Z,11
2018-04-08T06:22:06.895Z,11
2018-04-08T06:23:09.619Z,11.1
2018-04-08T06:24:12.048Z,11.1
2018-04-08T06:25:14.485Z,11.1
2018-04-08T06:26:16.903Z,11.1
2018-04-08T06:27:19.630Z,11.2
2018-04-08T06:28:22.064Z,11.2
2018-04-08T06:29:24.504Z,11.2
2018-04-08T06:30:26.941Z,11.3
2018-04-08T06:31:29.374Z,11.3
2018-04-08T06:32:32.212Z,11.3
2018-04-08T06:33:34.629Z,11.3
2018-04-08T06:34:37.068Z,11.3
2018-04-08T06:35:39.504Z,11.4
2018-04-08T06:36:41.931Z,11.4
2018-04-08T06:37:44.362Z,11.4
2018-04-08T06:38:47.092Z,11.5
2018-04-08T06:39:49.518Z,11.6
2018-04-08T06:40:52.279Z,11.6
2018-04-08T06:41:54.715Z,11.6
2018-04-08T06:42:57.146Z,11.6
2018-04-08T06:43:59.584Z,11.6
2018-04-08T06:45:02.028Z,11.8
2018-04-08T06:46:05.032Z,11.8
2018-04-08T06:47:07.477Z,11.8
2018-04-08T06:48:10.198Z,11.9
2018-04-08T06:49:12.635Z,11.9
2018-04-08T06:50:15.077Z,11.9
2018-04-08T06:51:17.886Z,12
2018-04-08T06:52:20.610Z,12
2018-04-08T06:53:23.043Z,12
2018-04-08T06:54:25.486Z,12
2018-04-08T06:55:27.903Z,12
2018-04-08T06:56:30.345Z,12
2018-04-08T06:57:33.059Z,12.1
2018-04-08T06:58:35.501Z,12.1
2018-04-08T06:59:37.947Z,12.1
2018-04-08T07:00:40.386Z,12.2
2018-04-08T07:01:43.386Z,12.3
2018-04-08T07:02:45.822Z,12.2
2018-04-08T07:03:48.255Z,12.3
2018-04-08T07:04:50.694Z,12.3
2018-04-08T07:07:27.404Z,12.4
2018-04-08T07:08:36.389Z,12.4
2018-04-08T07:10:17.186Z,12.4
2018-04-08T07:11:19.628Z,12.4
2018-04-08T07:12:22.058Z,12.5
2018-04-08T07:13:24.508Z,12.4
2018-04-08T07:14:27.229Z,12.6
2018-04-08T07:15:29.666Z,12.6
2018-04-08T07:16:32.104Z,12.6
2018-04-08T07:17:34.846Z,12.7
2018-04-08T07:18:37.303Z,12.7
2018-04-08T07:19:39.714Z,12.7
2018-04-08T07:20:42.148Z,12.7
2018-04-08T07:21:44.889Z,12.7
2018-04-08T07:22:47.622Z,12.8
2018-04-08T07:23:50.447Z,12.8
2018-04-08T07:24:52.885Z,12.9
2018-04-08T07:25:55.325Z,12.9
2018-04-08T07:26:57.750Z,12.9
2018-04-08T07:28:00.203Z,12.9
2018-04-08T07:29:02.637Z,12.9
2018-04-08T07:30:05.074Z,12.9
2018-04-08T07:31:07.796Z,13
2018-04-08T07:32:10.233Z,13.1
2018-04-08T07:33:13.060Z,13.1
2018-04-08T07:34:15.495Z,13.1
2018-04-08T07:35:17.932Z,13.2
2018-04-08T07:36:20.370Z,13.4
2018-04-08T07:37:23.173Z,13.4
2018-04-08T07:38:25.620Z,13.4
2018-04-08T07:39:28.054Z,13.4
2018-04-08T07:40:30.878Z,13.4
2018-04-08T07:41:33.604Z,13.4
2018-04-08T07:42:36.334Z,13.4
2018-04-08T07:43:39.053Z,13.5
2018-04-08T07:44:41.496Z,13.5
2018-04-08T07:45:43.925Z,13.6
2018-04-08T07:46:46.653Z,13.7
2018-04-08T07:47:49.091Z,13.8
2018-04-08T07:48:51.528Z,13.7
2018-04-08T07:49:54.016Z,13.7
2018-04-08T07:50:56.723Z,13.8
2018-04-08T07:51:59.152Z,13.8
2018-04-08T07:53:01.597Z,13.8
2018-04-08T07:54:04.317Z,13.8
2018-04-08T07:55:06.749Z,13.9
2018-04-08T07:56:09.183Z,14.1
2018-04-08T07:57:11.629Z,14.3
2018-04-08T07:58:14.060Z,14.5
2018-04-08T07:59:16.506Z,14.8
2018-04-08T08:00:19.326Z,14.7
2018-04-08T08:01:22.142Z,14.6
2018-04-08T08:02:24.864Z,14.7
2018-04-08T08:03:27.309Z,14.8
2018-04-08T08:04:30.134Z,14.9
2018-04-08T08:05:32.566Z,15
2018-04-08T08:06:35.005Z,14.9
2018-04-08T08:07:37.442Z,15.1
2018-04-08T08:08:39.882Z,15.1
2018-04-08T08:09:42.317Z,15.1
2018-04-08T08:10:44.775Z,15.3
2018-04-08T08:11:47.195Z,15.3
2018-04-08T08:12:49.645Z,15.5
2018-04-08T08:13:52.076Z,15.5
2018-04-08T08:14:54.516Z,15.6
2018-04-08T08:15:56.951Z,15.7
2018-04-08T08:16:59.392Z,15.5
2018-04-08T08:18:01.825Z,15.5
2018-04-08T08:19:04.275Z,15.6
2018-04-08T08:20:06.715Z,15.5
2018-04-08T08:21:09.436Z,15.7
2018-04-08T08:22:11.864Z,15.8
2018-04-08T08:23:14.296Z,15.7
2018-04-08T08:24:16.734Z,15.9
2018-04-08T08:25:19.182Z,16
2018-04-08T08:26:21.611Z,16.1
2018-04-08T08:27:24.054Z,16.1
2018-04-08T08:28:26.499Z,16.2
2018-04-08T08:29:28.945Z,16.1
2018-04-08T08:30:31.380Z,16.2
2018-04-08T08:31:33.823Z,16.4
2018-04-08T08:32:37.208Z,16.6
2018-04-08T08:33:39.658Z,16.7
2018-04-08T08:34:42.108Z,16.8
2018-04-08T08:35:44.558Z,16.8
2018-04-08T08:36:46.981Z,16.7
2018-04-08T08:37:49.421Z,16.7
2018-04-08T08:38:51.874Z,16.7
2018-04-08T08:39:54.609Z,16.5
2018-04-08T08:40:57.044Z,16.6
2018-04-08T08:41:59.485Z,16.5
2018-04-08T08:43:01.917Z,16.4
2018-04-08T08:44:04.365Z,16.6
2018-04-08T08:45:06.811Z,16.6
2018-04-08T08:46:09.245Z,17
2018-04-08T08:47:11.689Z,17.1
2018-04-08T08:48:14.133Z,17.1
2018-04-08T08:49:16.578Z,17.1
2018-04-08T08:50:19.321Z,17
2018-04-08T08:51:22.063Z,17.1
2018-04-08T08:52:24.556Z,17.1
2018-04-08T08:53:27.004Z,17.1
2018-04-08T08:54:29.455Z,17.2
2018-04-08T08:55:31.893Z,17
2018-04-08T08:56:34.728Z,17.1
2018-04-08T08:57:37.164Z,17.1
2018-04-08T08:58:39.626Z,17.3
2018-04-08T08:59:42.455Z,17.3
2018-04-08T09:00:44.956Z,17.3
2018-04-08T09:01:47.402Z,17.3
2018-04-08T09:02:49.940Z,17.2
2018-04-08T09:03:52.391Z,17.1
2018-04-08T09:04:54.869Z,17.5
2018-04-08T09:05:58.103Z,17.5
2018-04-08T09:07:01.015Z,17.6
2018-04-08T09:08:03.693Z,17.3
2018-04-08T09:09:06.143Z,17.4
2018-04-08T09:10:09.020Z,17.4
2018-04-08T09:11:11.484Z,17.6
2018-04-08T09:12:14.042Z,17.4
2018-04-08T09:13:16.552Z,17.4
2018-04-08T09:14:19.172Z,17.5
2018-04-08T09:15:21.628Z,17.4
2018-04-08T09:16:24.096Z,17.7
2018-04-08T09:17:26.613Z,17.5
2018-04-08T09:18:29.349Z,17.7
2018-04-08T09:19:33.164Z,17.6
2018-04-08T09:20:35.691Z,17.9
2018-04-08T09:21:38.404Z,18.2
2018-04-08T09:22:40.935Z,17.9
2018-04-08T09:23:44.223Z,18.1
2018-04-08T09:24:46.743Z,18.2
2018-04-08T09:25:49.259Z,18.3
2018-04-08T09:26:51.749Z,18.4
2018-04-08T09:27:54.521Z,18.4
2018-04-08T09:28:56.974Z,18.5
2018-04-08T09:29:59.665Z,18.6
2018-04-08T09:31:02.696Z,18.5
2018-04-08T09:32:06.166Z,18.5
2018-04-08T09:33:08.615Z,18.5
2018-04-08T09:34:11.051Z,18.6
2018-04-08T09:35:13.499Z,18.9
2018-04-08T09:36:16.021Z,18.9
2018-04-08T09:37:18.393Z,18.7
2018-04-08T09:38:20.849Z,18.6
2018-04-08T09:39:23.299Z,18.7
2018-04-08T09:40:25.744Z,18.7
2018-04-08T09:41:28.202Z,18.7
2018-04-08T09:42:30.652Z,18.8
2018-04-08T09:43:33.084Z,19.1
2018-04-08T09:44:35.540Z,19.1
2018-04-08T09:45:38.044Z,19.5
2018-04-08T09:46:40.452Z,19.5
2018-04-08T09:47:43.202Z,19.3
2018-04-08T09:48:45.634Z,19.4
2018-04-08T09:49:48.092Z,19.6
2018-04-08T09:50:50.545Z,19.5
2018-04-08T09:51:53.278Z,19.4
2018-04-08T09:52:55.733Z,19.5
2018-04-08T09:53:58.491Z,19.7
2018-04-08T09:55:00.986Z,19.6
2018-04-08T09:56:04.051Z,19.7
2018-04-08T09:57:06.493Z,19.7
2018-04-08T09:58:08.936Z,19.8
2018-04-08T09:59:11.667Z,19
2018-04-08T10:00:14.126Z,19.3
2018-04-08T10:01:16.576Z,19.4
2018-04-08T10:02:19.028Z,19.9
2018-04-08T10:03:21.486Z,20
2018-04-08T10:04:23.938Z,19.7
2018-04-08T10:05:26.392Z,19.7
2018-04-08T10:06:28.825Z,19.5
2018-04-08T10:07:31.288Z,19.6
2018-04-08T10:08:34.126Z,19.9
2018-04-08T10:09:36.566Z,19.9
2018-04-08T10:10:39.021Z,20
2018-04-08T10:11:41.469Z,19.9
2018-04-08T10:12:43.914Z,20.4
2018-04-08T10:13:46.959Z,19.8
2018-04-08T10:14:49.396Z,19.6
2018-04-08T10:15:51.848Z,19.3
2018-04-08T10:16:54.343Z,19.6
2018-04-08T10:17:56.792Z,19.9
2018-04-08T10:18:59.246Z,19.8
2018-04-08T10:20:01.984Z,20.1
2018-04-08T10:21:04.717Z,20.4
2018-04-08T10:22:07.461Z,20.5
2018-04-08T10:23:09.905Z,20.5
2018-04-08T10:24:12.345Z,20.3
2018-04-08T10:25:14.794Z,20.4
2018-04-08T10:26:17.239Z,20.4
2018-04-08T10:27:20.381Z,20.7
2018-04-08T10:28:23.218Z,20.8
2018-04-08T10:29:26.085Z,20.9
2018-04-08T10:30:28.470Z,20.9
2018-04-08T10:31:30.932Z,21
2018-04-08T10:32:33.668Z,20.8
2018-04-08T10:33:36.501Z,21.3
2018-04-08T10:34:38.957Z,21.1
2018-04-08T10:35:41.689Z,21.1
2018-04-08T10:36:44.143Z,20.9
2018-04-08T10:37:46.604Z,20.9
2018-04-08T10:38:49.061Z,21
2018-04-08T10:39:51.508Z,21.4
2018-04-08T10:40:53.978Z,21.3
2018-04-08T10:41:56.413Z,21.6
2018-04-08T10:42:58.872Z,21.7
2018-04-08T10:44:01.707Z,21.5
2018-04-08T10:45:04.156Z,21.5
2018-04-08T10:46:06.997Z,21.5
2018-04-08T10:47:09.451Z,21.1
2018-04-08T10:48:11.887Z,21.1
2018-04-08T10:49:14.345Z,21.6
2018-04-08T10:50:16.799Z,21.7
2018-04-08T10:51:19.548Z,21.7
2018-04-08T10:52:22.303Z,21.3
2018-04-08T10:53:24.755Z,21.3
2018-04-08T10:54:27.194Z,21.3
2018-04-08T10:55:29.948Z,21.4
2018-04-08T10:56:32.677Z,21.4
2018-04-08T10:57:35.425Z,21.1
2018-04-08T10:58:37.876Z,21.3
2018-04-08T10:59:40.336Z,21.4
2018-04-08T11:00:42.789Z,21.5
2018-04-08T11:01:45.247Z,21.4
2018-04-08T11:02:47.981Z,21.2
2018-04-08T11:03:50.433Z,21.3
2018-04-08T11:04:52.968Z,21.3
2018-04-08T11:05:55.344Z,21.4
2018-04-08T11:06:57.795Z,21.6
2018-04-08T11:08:00.247Z,21.7
2018-04-08T11:09:02.701Z,22
2018-04-08T11:10:05.153Z,22.1
2018-04-08T11:11:07.611Z,21.9
2018-04-08T11:12:10.054Z,21.4
2018-04-08T11:13:12.509Z,21.5
2018-04-08T11:14:15.242Z,21.2
2018-04-08T11:15:18.077Z,21.4
2018-04-08T11:16:20.527Z,21.7
2018-04-08T11:17:23.265Z,22.2
2018-04-08T11:18:25.711Z,22.5
2018-04-08T11:19:28.162Z,22.3
2018-04-08T11:20:30.993Z,22.2
2018-04-08T11:21:33.451Z,21.7
2018-04-08T11:22:35.903Z,21.7
2018-04-08T11:23:38.370Z,21.7
2018-04-08T11:24:40.815Z,22
2018-04-08T11:25:43.270Z,22.2
2018-04-08T11:26:45.731Z,21.9
2018-04-08T11:27:48.774Z,22
2018-04-08T11:28:51.221Z,22
2018-04-08T11:29:53.954Z,22
2018-04-08T11:30:56.685Z,22.2
2018-04-08T11:31:59.151Z,21.7
2018-04-08T11:33:01.603Z,21.8
2018-04-08T11:34:04.357Z,22.1
2018-04-08T11:35:07.096Z,21.8
2018-04-08T11:36:09.567Z,22
2018-04-08T11:37:12.406Z,22
2018-04-08T11:38:14.885Z,21.5
2018-04-08T11:39:17.343Z,21.8
2018-04-08T11:40:19.846Z,21.5
2018-04-08T11:41:22.297Z,22
2018-04-08T11:42:24.758Z,22.4
2018-04-08T11:43:27.248Z,22.4
2018-04-08T11:44:30.099Z,22.5
2018-04-08T11:45:32.553Z,22.2
2018-04-08T11:46:35.039Z,22
2018-04-08T11:47:37.511Z,22.4
2018-04-08T11:48:39.967Z,22.3
2018-04-08T11:49:42.430Z,22.4
2018-04-08T11:50:44.887Z,22.5
2018-04-08T11:51:47.773Z,22.2
2018-04-08T11:52:50.514Z,22.3
2018-04-08T11:53:52.972Z,22.1
2018-04-08T11:54:55.420Z,21.7
2018-04-08T11:55:58.155Z,21.9
2018-04-08T11:57:00.912Z,21.5
2018-04-08T11:58:03.355Z,21.3
2018-04-08T11:59:05.801Z,21.3
2018-04-08T12:00:08.249Z,21.6
2018-04-08T12:01:10.701Z,22
2018-04-08T12:03:04.464Z,22.2
2018-04-08T12:04:07.269Z,22.4
2018-04-08T12:05:10.200Z,22.2
2018-04-08T12:06:12.922Z,22.9
2018-04-08T12:07:15.880Z,22.7
2018-04-08T12:08:18.287Z,22.5
2018-04-08T12:09:21.518Z,22
2018-04-08T12:10:23.917Z,21.9
2018-04-08T12:11:26.398Z,22.3
2018-04-08T12:12:28.855Z,22.7
2018-04-08T12:13:31.396Z,22.9
2018-04-08T12:14:34.260Z,23.2
2018-04-08T12:15:37.762Z,23.3
2018-04-08T12:16:40.297Z,23.1
2018-04-08T12:17:42.909Z,22.9
2018-04-08T12:18:45.307Z,22.3
2018-04-08T12:19:48.239Z,22.6
2018-04-08T12:20:50.672Z,22.6
2018-04-08T12:21:53.563Z,23.1
2018-04-08T12:22:56.976Z,23
2018-04-08T12:23:59.359Z,23.4
2018-04-08T12:25:02.458Z,23.7
2018-04-08T12:26:05.253Z,23.4
2018-04-08T12:27:08.077Z,23
2018-04-08T12:28:10.776Z,23.1
2018-04-08T12:29:13.199Z,23.1
2018-04-08T12:30:15.993Z,23.1
2018-04-08T12:31:18.433Z,23.1
2018-04-08T12:32:20.808Z,22.5
2018-04-08T12:33:23.511Z,23
2018-04-08T12:34:25.907Z,23.2
2018-04-08T12:35:28.316Z,23
2018-04-08T12:36:30.700Z,23
2018-04-08T12:37:33.106Z,22.9
2018-04-08T12:38:35.520Z,22.8
2018-04-08T12:39:37.925Z,22.6
2018-04-08T12:40:40.333Z,22.8
2018-04-08T12:41:42.726Z,22.7
2018-04-08T12:42:45.125Z,22.7
2018-04-08T12:43:47.534Z,23.3
2018-04-08T12:44:49.931Z,23
2018-04-08T12:45:52.325Z,23
2018-04-08T12:46:55.003Z,22.7
2018-04-08T12:47:57.393Z,22.5
2018-04-08T12:48:59.784Z,23
2018-04-08T12:50:02.180Z,23.2
2018-04-08T12:51:05.161Z,22.9
2018-04-08T12:52:07.567Z,22.6
2018-04-08T12:53:09.974Z,22.4
2018-04-08T12:54:12.370Z,22.6
2018-04-08T12:55:14.789Z,22.8
2018-04-08T12:56:17.204Z,22.4
2018-04-08T12:57:19.623Z,22.8
2018-04-08T12:58:22.363Z,22.6
2018-04-08T12:59:24.775Z,23.1
2018-04-08T13:00:27.208Z,23.1
2018-04-08T13:01:29.608Z,23.5
2018-04-08T13:02:32.007Z,23.2
2018-04-08T13:03:34.730Z,22.9
2018-04-08T13:04:37.127Z,23.1
2018-04-08T13:05:39.534Z,23.3
2018-04-08T13:06:42.316Z,23.5
2018-04-08T13:07:44.756Z,23.1
2018-04-08T13:08:47.134Z,23.4
2018-04-08T13:09:49.554Z,23.5
2018-04-08T13:10:51.959Z,23.7
2018-04-08T13:11:54.651Z,23.8
2018-04-08T13:12:57.058Z,23.6
2018-04-08T13:13:59.766Z,23.5
2018-04-08T13:15:02.188Z,23.6
2018-04-08T13:16:04.586Z,23.6
2018-04-08T13:17:06.992Z,23.8
2018-04-08T13:18:09.392Z,23.8
2018-04-08T13:19:12.086Z,23.3
2018-04-08T13:20:14.769Z,23.3
2018-04-08T13:21:17.155Z,23.8
2018-04-08T13:22:19.568Z,24
2018-04-08T13:23:22.260Z,23.6
2018-04-08T13:24:24.953Z,23.4
2018-04-08T13:25:27.366Z,23
2018-04-08T13:26:29.768Z,22.8
2018-04-08T13:27:32.181Z,23
2018-04-08T13:28:34.595Z,23.5
2018-04-08T13:29:37.282Z,23.7
2018-04-08T13:30:39.680Z,23.9
2018-04-08T13:31:42.080Z,24
2018-04-08T13:32:44.768Z,23.8
2018-04-08T13:33:47.165Z,23.4
2018-04-08T13:34:49.588Z,23.3
2018-04-08T13:35:52.005Z,23.4
2018-04-08T13:36:54.714Z,23.2
2018-04-08T13:37:57.411Z,23.1
2018-04-08T13:38:59.818Z,23.3
2018-04-08T13:40:02.620Z,23.8
2018-04-08T13:41:05.412Z,24
2018-04-08T13:42:07.815Z,23.9
2018-04-08T13:43:10.222Z,24.2
2018-04-08T13:44:12.623Z,24
2018-04-08T13:45:15.037Z,23.9
2018-04-08T13:46:17.437Z,23.8
2018-04-08T13:47:19.843Z,24
2018-04-08T13:48:22.254Z,24.4
2018-04-08T13:49:24.652Z,24.2
2018-04-08T13:50:27.358Z,23.5
2018-04-08T13:51:29.766Z,23.4
2018-04-08T13:52:32.164Z,23.9
2018-04-08T13:53:34.579Z,23.9
2018-04-08T13:54:36.969Z,23.8
2018-04-08T13:55:39.373Z,23.8
2018-04-08T13:56:41.777Z,23.4
2018-04-08T13:57:44.178Z,23.4
2018-04-08T13:58:46.575Z,23.5
2018-04-08T13:59:49.260Z,23.6
2018-04-08T14:00:51.664Z,23.9
2018-04-08T14:01:54.060Z,24
2018-04-08T14:02:56.777Z,24.4